sensor_id;sensor_type;location;lat;lon;timestamp;pressure;altitude;pressure_sealevel;temperature;humidity
23166;BME280;11751;42.700;24.170;2023-02-18T00:00:24;94641.03;;;0.75;nan
23166;BME280;11751;42.700;24.170;2023-02-18T00:02:49;94641.72;;;0.89;nan
23166;BME280;11751;42.700;24.170;2023-02-18T00:05:15;94640.00;;;0.92;nan
23166;BME280;11751;42.700;24.170;2023-02-18T00:07:41;94631.47;;;0.90;nan
23166;BME280;11751;42.700;24.170;2023-02-18T00:10:11;94625.94;;;0.90;nan
23166;BME280;11751;42.700;24.170;2023-02-18T00:12:37;94623.63;;;0.83;nan
23166;BME280;11751;42.700;24.170;2023-02-18T00:15:03;94627.59;;;0.82;nan
23166;BME280;11751;42.700;24.170;2023-02-18T00:17:28;94628.63;;;0.84;nan
23166;BME280;11751;42.700;24.170;2023-02-18T00:19:54;94625.94;;;0.90;nan
23166;BME280;11751;42.700;24.170;2023-02-18T00:22:19;94620.78;;;0.78;nan
23166;BME280;11751;42.700;24.170;2023-02-18T00:24:45;94612.69;;;0.74;nan
23166;BME280;11751;42.700;24.170;2023-02-18T00:27:10;94615.44;;;0.74;nan
23166;BME280;11751;42.700;24.170;2023-02-18T00:29:35;94611.38;;;0.70;nan
23166;BME280;11751;42.700;24.170;2023-02-18T00:32:01;94611.13;;;0.87;nan
23166;BME280;11751;42.700;24.170;2023-02-18T00:34:26;94615.13;;;0.86;nan
23166;BME280;11751;42.700;24.170;2023-02-18T00:36:52;94603.53;;;0.82;nan
23166;BME280;11751;42.700;24.170;2023-02-18T00:39:17;94610.16;;;0.90;nan
23166;BME280;11751;42.700;24.170;2023-02-18T00:41:42;94607.47;;;0.96;nan
23166;BME280;11751;42.700;24.170;2023-02-18T00:44:09;94593.00;;;1.01;nan
23166;BME280;11751;42.700;24.170;2023-02-18T00:46:35;94590.25;;;0.81;nan
23166;BME280;11751;42.700;24.170;2023-02-18T00:49:01;94601.28;;;1.01;nan
23166;BME280;11751;42.700;24.170;2023-02-18T00:51:27;94603.03;;;1.04;nan
23166;BME280;11751;42.700;24.170;2023-02-18T00:53:53;94605.88;;;1.09;nan
23166;BME280;11751;42.700;24.170;2023-02-18T00:56:19;94600.16;;;1.13;nan
23166;BME280;11751;42.700;24.170;2023-02-18T00:58:45;94593.75;;;1.01;nan
23166;BME280;11751;42.700;24.170;2023-02-18T01:01:10;94597.59;;;1.09;nan
23166;BME280;11751;42.700;24.170;2023-02-18T01:03:37;94591.22;;;0.98;nan
23166;BME280;11751;42.700;24.170;2023-02-18T01:06:04;94600.03;;;1.02;nan
23166;BME280;11751;42.700;24.170;2023-02-18T01:08:29;94589.41;;;0.95;nan
23166;BME280;11751;42.700;24.170;2023-02-18T01:10:57;94588.88;;;0.91;nan
23166;BME280;11751;42.700;24.170;2023-02-18T01:13:23;94590.31;;;0.86;nan
23166;BME280;11751;42.700;24.170;2023-02-18T01:15:49;94585.41;;;0.76;nan
23166;BME280;11751;42.700;24.170;2023-02-18T01:18:14;94591.78;;;0.82;nan
23166;BME280;11751;42.700;24.170;2023-02-18T01:20:42;94594.25;;;0.80;nan
23166;BME280;11751;42.700;24.170;2023-02-18T01:23:07;94598.25;;;0.79;nan
23166;BME280;11751;42.700;24.170;2023-02-18T01:25:34;94586.78;;;0.66;nan
23166;BME280;11751;42.700;24.170;2023-02-18T01:28:00;94581.00;;;0.64;nan
23166;BME280;11751;42.700;24.170;2023-02-18T01:30:26;94574.75;;;0.64;nan
23166;BME280;11751;42.700;24.170;2023-02-18T01:32:52;94575.50;;;0.64;nan
23166;BME280;11751;42.700;24.170;2023-02-18T01:35:18;94569.72;;;0.62;nan
23166;BME280;11751;42.700;24.170;2023-02-18T01:37:45;94566.66;;;0.40;nan
23166;BME280;11751;42.700;24.170;2023-02-18T01:40:16;94569.56;;;0.51;nan
23166;BME280;11751;42.700;24.170;2023-02-18T01:42:42;94571.34;;;0.54;nan
23166;BME280;11751;42.700;24.170;2023-02-18T01:45:36;94579.06;;;0.50;nan
23166;BME280;11751;42.700;24.170;2023-02-18T01:48:26;94578.78;;;0.48;nan
23166;BME280;11751;42.700;24.170;2023-02-18T01:50:57;94569.72;;;0.42;nan
23166;BME280;11751;42.700;24.170;2023-02-18T01:53:28;94570.09;;;0.35;nan
23166;BME280;11751;42.700;24.170;2023-02-18T01:55:56;94569.84;;;0.33;nan
23166;BME280;11751;42.700;24.170;2023-02-18T01:58:22;94568.44;;;0.23;nan
23166;BME280;11751;42.700;24.170;2023-02-18T02:00:48;94573.88;;;0.18;nan
23166;BME280;11751;42.700;24.170;2023-02-18T02:03:14;94567.66;;;0.23;nan
23166;BME280;11751;42.700;24.170;2023-02-18T02:05:39;94562.25;;;0.28;nan
23166;BME280;11751;42.700;24.170;2023-02-18T02:08:05;94572.59;;;0.33;nan
23166;BME280;11751;42.700;24.170;2023-02-18T02:10:55;94568.78;;;0.31;nan
23166;BME280;11751;42.700;24.170;2023-02-18T02:13:27;94575.06;;;0.31;nan
23166;BME280;11751;42.700;24.170;2023-02-18T02:16:16;94567.47;;;0.26;nan
23166;BME280;11751;42.700;24.170;2023-02-18T02:38:09;94568.81;;;0.16;nan
23166;BME280;11751;42.700;24.170;2023-02-18T02:40:48;94564.47;;;0.24;nan
23166;BME280;11751;42.700;24.170;2023-02-18T02:43:47;94559.13;;;0.21;nan
23166;BME280;11751;42.700;24.170;2023-02-18T02:46:39;94559.81;;;0.16;nan
23166;BME280;11751;42.700;24.170;2023-02-18T02:49:30;94567.50;;;0.12;nan
23166;BME280;11751;42.700;24.170;2023-02-18T02:52:03;94557.75;;;-0.03;nan
23166;BME280;11751;42.700;24.170;2023-02-18T02:54:30;94565.81;;;0.14;nan
23166;BME280;11751;42.700;24.170;2023-02-18T02:59:38;94562.38;;;0.19;nan
23166;BME280;11751;42.700;24.170;2023-02-18T03:02:27;94567.88;;;0.19;nan
23166;BME280;11751;42.700;24.170;2023-02-18T03:10:31;94567.38;;;0.21;nan
23166;BME280;11751;42.700;24.170;2023-02-18T03:13:08;94570.25;;;0.12;nan
23166;BME280;11751;42.700;24.170;2023-02-18T03:15:51;94565.25;;;0.10;nan
23166;BME280;11751;42.700;24.170;2023-02-18T03:18:29;94571.31;;;0.14;nan
23166;BME280;11751;42.700;24.170;2023-02-18T03:23:56;94574.72;;;0.09;nan
23166;BME280;11751;42.700;24.170;2023-02-18T03:26:24;94570.75;;;0.10;nan
23166;BME280;11751;42.700;24.170;2023-02-18T03:28:53;94571.16;;;0.03;nan
23166;BME280;11751;42.700;24.170;2023-02-18T03:31:24;94576.66;;;0.03;nan
23166;BME280;11751;42.700;24.170;2023-02-18T03:33:56;94572.94;;;0.06;nan
23166;BME280;11751;42.700;24.170;2023-02-18T03:36:23;94571.97;;;0.09;nan
23166;BME280;11751;42.700;24.170;2023-02-18T03:39:15;94579.09;;;0.16;nan
23166;BME280;11751;42.700;24.170;2023-02-18T03:41:42;94579.66;;;0.05;nan
23166;BME280;11751;42.700;24.170;2023-02-18T03:44:09;94582.53;;;-0.03;nan
23166;BME280;11751;42.700;24.170;2023-02-18T03:46:36;94587.75;;;0.09;nan
23166;BME280;11751;42.700;24.170;2023-02-18T03:49:02;94600.56;;;-0.03;nan
23166;BME280;11751;42.700;24.170;2023-02-18T03:51:28;94590.31;;;0.12;nan
23166;BME280;11751;42.700;24.170;2023-02-18T03:53:53;94586.84;;;0.17;nan
23166;BME280;11751;42.700;24.170;2023-02-18T03:56:19;94585.13;;;0.20;nan
23166;BME280;11751;42.700;24.170;2023-02-18T03:58:45;94588.38;;;0.18;nan
23166;BME280;11751;42.700;24.170;2023-02-18T04:01:11;94586.47;;;0.24;nan
23166;BME280;11751;42.700;24.170;2023-02-18T04:03:36;94595.22;;;0.23;nan
23166;BME280;11751;42.700;24.170;2023-02-18T04:06:02;94594.47;;;0.22;nan
23166;BME280;11751;42.700;24.170;2023-02-18T04:08:28;94595.81;;;0.12;nan
23166;BME280;11751;42.700;24.170;2023-02-18T04:10:53;94594.84;;;0.15;nan
23166;BME280;11751;42.700;24.170;2023-02-18T04:13:20;94593.69;;;0.22;nan
23166;BME280;11751;42.700;24.170;2023-02-18T04:15:48;94587.44;;;0.21;nan
23166;BME280;11751;42.700;24.170;2023-02-18T04:18:13;94583.44;;;0.22;nan
23166;BME280;11751;42.700;24.170;2023-02-18T04:20:39;94576.88;;;0.20;nan
23166;BME280;11751;42.700;24.170;2023-02-18T04:23:04;94582.78;;;0.13;nan
23166;BME280;11751;42.700;24.170;2023-02-18T04:25:30;94585.91;;;0.20;nan
23166;BME280;11751;42.700;24.170;2023-02-18T04:27:56;94569.63;;;0.02;nan
23166;BME280;11751;42.700;24.170;2023-02-18T04:30:22;94574.97;;;-0.08;nan
23166;BME280;11751;42.700;24.170;2023-02-18T04:32:48;94581.19;;;0.06;nan
23166;BME280;11751;42.700;24.170;2023-02-18T04:35:13;94577.00;;;0.11;nan
23166;BME280;11751;42.700;24.170;2023-02-18T04:37:39;94580.81;;;0.13;nan
23166;BME280;11751;42.700;24.170;2023-02-18T04:40:05;94578.53;;;0.12;nan
23166;BME280;11751;42.700;24.170;2023-02-18T04:42:30;94574.16;;;0.05;nan
23166;BME280;11751;42.700;24.170;2023-02-18T04:44:56;94579.13;;;0.01;nan
23166;BME280;11751;42.700;24.170;2023-02-18T04:47:21;94569.34;;;0.00;nan
23166;BME280;11751;42.700;24.170;2023-02-18T04:49:47;94579.69;;;-0.09;nan
23166;BME280;11751;42.700;24.170;2023-02-18T04:52:12;94572.22;;;-0.08;nan
23166;BME280;11751;42.700;24.170;2023-02-18T04:54:37;94578.13;;;-0.15;nan
23166;BME280;11751;42.700;24.170;2023-02-18T04:57:03;94571.53;;;-0.03;nan
23166;BME280;11751;42.700;24.170;2023-02-18T04:59:28;94580.06;;;-0.02;nan
23166;BME280;11751;42.700;24.170;2023-02-18T05:01:54;94588.63;;;0.00;nan
23166;BME280;11751;42.700;24.170;2023-02-18T05:04:19;94579.84;;;0.16;nan
23166;BME280;11751;42.700;24.170;2023-02-18T05:06:45;94570.22;;;0.26;nan
23166;BME280;11751;42.700;24.170;2023-02-18T05:09:10;94571.06;;;0.32;nan
23166;BME280;11751;42.700;24.170;2023-02-18T05:11:36;94574.06;;;0.34;nan
23166;BME280;11751;42.700;24.170;2023-02-18T05:14:01;94573.13;;;0.37;nan
23166;BME280;11751;42.700;24.170;2023-02-18T05:16:27;94570.25;;;0.46;nan
23166;BME280;11751;42.700;24.170;2023-02-18T05:18:52;94562.53;;;0.50;nan
23166;BME280;11751;42.700;24.170;2023-02-18T05:21:18;94564.53;;;0.50;nan
23166;BME280;11751;42.700;24.170;2023-02-18T05:23:43;94573.28;;;0.48;nan
23166;BME280;11751;42.700;24.170;2023-02-18T05:26:09;94566.81;;;0.51;nan
23166;BME280;11751;42.700;24.170;2023-02-18T05:28:34;94576.41;;;0.56;nan
23166;BME280;11751;42.700;24.170;2023-02-18T05:30:59;94587.69;;;0.58;nan
23166;BME280;11751;42.700;24.170;2023-02-18T05:33:25;94585.97;;;0.60;nan
23166;BME280;11751;42.700;24.170;2023-02-18T05:35:51;94581.56;;;0.68;nan
23166;BME280;11751;42.700;24.170;2023-02-18T05:38:16;94573.22;;;0.63;nan
23166;BME280;11751;42.700;24.170;2023-02-18T05:40:42;94581.00;;;0.64;nan
23166;BME280;11751;42.700;24.170;2023-02-18T05:43:07;94589.47;;;0.81;nan
23166;BME280;11751;42.700;24.170;2023-02-18T05:45:33;94588.19;;;0.76;nan
23166;BME280;11751;42.700;24.170;2023-02-18T05:47:59;94586.34;;;0.87;nan
23166;BME280;11751;42.700;24.170;2023-02-18T05:50:24;94589.97;;;0.99;nan
23166;BME280;11751;42.700;24.170;2023-02-18T05:52:49;94608.16;;;1.11;nan
23166;BME280;11751;42.700;24.170;2023-02-18T05:55:15;94599.41;;;1.12;nan
23166;BME280;11751;42.700;24.170;2023-02-18T05:57:40;94604.16;;;1.12;nan
23166;BME280;11751;42.700;24.170;2023-02-18T06:00:07;94591.34;;;1.09;nan
23166;BME280;11751;42.700;24.170;2023-02-18T06:02:36;94587.72;;;1.23;nan
23166;BME280;11751;42.700;24.170;2023-02-18T06:05:02;94582.53;;;1.30;nan
23166;BME280;11751;42.700;24.170;2023-02-18T06:07:27;94585.91;;;1.40;nan
23166;BME280;11751;42.700;24.170;2023-02-18T06:09:53;94584.50;;;1.50;nan
23166;BME280;11751;42.700;24.170;2023-02-18T06:12:18;94576.06;;;1.59;nan
23166;BME280;11751;42.700;24.170;2023-02-18T06:14:44;94578.66;;;1.67;nan
23166;BME280;11751;42.700;24.170;2023-02-18T06:17:11;94587.31;;;1.55;nan
23166;BME280;11751;42.700;24.170;2023-02-18T06:19:36;94587.84;;;1.84;nan
23166;BME280;11751;42.700;24.170;2023-02-18T06:22:02;94580.66;;;1.98;nan
23166;BME280;11751;42.700;24.170;2023-02-18T06:24:28;94591.28;;;2.05;nan
23166;BME280;11751;42.700;24.170;2023-02-18T06:26:53;94582.31;;;2.15;nan
23166;BME280;11751;42.700;24.170;2023-02-18T06:29:19;94574.78;;;2.16;nan
23166;BME280;11751;42.700;24.170;2023-02-18T06:31:44;94589.63;;;2.18;nan
23166;BME280;11751;42.700;24.170;2023-02-18T06:34:09;94586.09;;;2.18;nan
23166;BME280;11751;42.700;24.170;2023-02-18T06:36:35;94581.22;;;2.38;nan
23166;BME280;11751;42.700;24.170;2023-02-18T06:39:02;94579.94;;;2.34;nan
23166;BME280;11751;42.700;24.170;2023-02-18T06:41:28;94577.19;;;2.34;nan
23166;BME280;11751;42.700;24.170;2023-02-18T06:43:53;94577.50;;;2.47;nan
23166;BME280;11751;42.700;24.170;2023-02-18T06:46:19;94577.25;;;2.50;nan
23166;BME280;11751;42.700;24.170;2023-02-18T06:48:45;94573.81;;;2.60;nan
23166;BME280;11751;42.700;24.170;2023-02-18T06:51:10;94571.72;;;2.50;nan
23166;BME280;11751;42.700;24.170;2023-02-18T06:53:36;94587.94;;;2.68;nan
23166;BME280;11751;42.700;24.170;2023-02-18T06:56:01;94576.94;;;2.79;nan
23166;BME280;11751;42.700;24.170;2023-02-18T06:58:27;94581.19;;;2.80;nan
23166;BME280;11751;42.700;24.170;2023-02-18T07:00:52;94587.84;;;2.52;nan
23166;BME280;11751;42.700;24.170;2023-02-18T07:03:17;94573.69;;;2.80;nan
23166;BME280;11751;42.700;24.170;2023-02-18T07:05:43;94582.56;;;3.01;nan
23166;BME280;11751;42.700;24.170;2023-02-18T07:08:09;94584.13;;;3.13;nan
23166;BME280;11751;42.700;24.170;2023-02-18T07:10:35;94589.69;;;3.24;nan
23166;BME280;11751;42.700;24.170;2023-02-18T07:13:00;94594.00;;;3.30;nan
23166;BME280;11751;42.700;24.170;2023-02-18T07:15:26;94590.53;;;3.46;nan
23166;BME280;11751;42.700;24.170;2023-02-18T07:17:52;94579.47;;;3.51;nan
23166;BME280;11751;42.700;24.170;2023-02-18T07:20:19;94591.59;;;3.70;nan
23166;BME280;11751;42.700;24.170;2023-02-18T07:22:45;94574.22;;;3.64;nan
23166;BME280;11751;42.700;24.170;2023-02-18T07:25:11;94577.22;;;3.77;nan
23166;BME280;11751;42.700;24.170;2023-02-18T07:27:36;94585.56;;;3.99;nan
23166;BME280;11751;42.700;24.170;2023-02-18T07:30:02;94576.28;;;4.13;nan
23166;BME280;11751;42.700;24.170;2023-02-18T07:32:27;94578.28;;;4.18;nan
23166;BME280;11751;42.700;24.170;2023-02-18T07:34:53;94576.50;;;4.31;nan
23166;BME280;11751;42.700;24.170;2023-02-18T07:37:19;94582.28;;;4.50;nan
23166;BME280;11751;42.700;24.170;2023-02-18T07:39:45;94577.97;;;4.65;nan
23166;BME280;11751;42.700;24.170;2023-02-18T07:42:11;94571.41;;;4.74;nan
23166;BME280;11751;42.700;24.170;2023-02-18T07:44:37;94570.09;;;4.86;nan
23166;BME280;11751;42.700;24.170;2023-02-18T07:47:04;94567.53;;;4.99;nan
23166;BME280;11751;42.700;24.170;2023-02-18T07:49:30;94577.59;;;5.12;nan
23166;BME280;11751;42.700;24.170;2023-02-18T07:51:56;94586.59;;;5.29;nan
23166;BME280;11751;42.700;24.170;2023-02-18T07:54:22;94574.50;;;5.32;nan
23166;BME280;11751;42.700;24.170;2023-02-18T07:56:47;94568.13;;;5.37;nan
23166;BME280;11751;42.700;24.170;2023-02-18T07:59:13;94581.25;;;5.42;nan
23166;BME280;11751;42.700;24.170;2023-02-18T08:01:39;94583.25;;;5.47;nan
23166;BME280;11751;42.700;24.170;2023-02-18T08:04:05;94581.94;;;5.59;nan
23166;BME280;11751;42.700;24.170;2023-02-18T08:06:34;94575.81;;;5.66;nan
23166;BME280;11751;42.700;24.170;2023-02-18T08:09:00;94582.84;;;5.78;nan
23166;BME280;11751;42.700;24.170;2023-02-18T08:11:25;94574.50;;;5.78;nan
23166;BME280;11751;42.700;24.170;2023-02-18T08:13:51;94585.31;;;5.87;nan
23166;BME280;11751;42.700;24.170;2023-02-18T08:16:18;94584.22;;;6.01;nan
23166;BME280;11751;42.700;24.170;2023-02-18T08:18:44;94572.34;;;6.35;nan
23166;BME280;11751;42.700;24.170;2023-02-18T08:21:12;94582.25;;;6.84;nan
23166;BME280;11751;42.700;24.170;2023-02-18T08:23:38;94566.75;;;7.12;nan
23166;BME280;11751;42.700;24.170;2023-02-18T08:26:03;94575.25;;;7.62;nan
23166;BME280;11751;42.700;24.170;2023-02-18T08:28:29;94562.22;;;8.07;nan
23166;BME280;11751;42.700;24.170;2023-02-18T08:30:54;94554.63;;;8.39;nan
23166;BME280;11751;42.700;24.170;2023-02-18T08:33:20;94552.88;;;8.67;nan
23166;BME280;11751;42.700;24.170;2023-02-18T08:35:48;94557.97;;;8.81;nan
23166;BME280;11751;42.700;24.170;2023-02-18T08:38:13;94568.94;;;8.92;nan
23166;BME280;11751;42.700;24.170;2023-02-18T08:40:39;94573.03;;;9.17;nan
23166;BME280;11751;42.700;24.170;2023-02-18T08:43:05;94564.22;;;9.39;nan
23166;BME280;11751;42.700;24.170;2023-02-18T08:45:31;94567.97;;;9.54;nan
23166;BME280;11751;42.700;24.170;2023-02-18T08:47:56;94568.03;;;9.75;nan
23166;BME280;11751;42.700;24.170;2023-02-18T08:50:22;94558.97;;;10.08;nan
23166;BME280;11751;42.700;24.170;2023-02-18T08:52:51;94563.25;;;9.96;nan
23166;BME280;11751;42.700;24.170;2023-02-18T08:55:16;94554.03;;;10.34;nan
23166;BME280;11751;42.700;24.170;2023-02-18T08:57:45;94565.38;;;10.69;nan
23166;BME280;11751;42.700;24.170;2023-02-18T09:00:11;94549.50;;;10.92;nan
23166;BME280;11751;42.700;24.170;2023-02-18T09:02:37;94546.78;;;11.27;nan
23166;BME280;11751;42.700;24.170;2023-02-18T09:05:03;94545.25;;;11.26;nan
23166;BME280;11751;42.700;24.170;2023-02-18T09:07:28;94549.44;;;11.61;nan
23166;BME280;11751;42.700;24.170;2023-02-18T09:09:54;94556.94;;;11.66;nan
23166;BME280;11751;42.700;24.170;2023-02-18T09:12:19;94548.63;;;11.25;nan
23166;BME280;11751;42.700;24.170;2023-02-18T09:14:46;94539.84;;;11.84;nan
23166;BME280;11751;42.700;24.170;2023-02-18T09:17:12;94534.75;;;12.33;nan
23166;BME280;11751;42.700;24.170;2023-02-18T09:19:37;94537.41;;;12.53;nan
23166;BME280;11751;42.700;24.170;2023-02-18T09:22:03;94531.81;;;12.76;nan
23166;BME280;11751;42.700;24.170;2023-02-18T09:24:28;94540.81;;;12.74;nan
23166;BME280;11751;42.700;24.170;2023-02-18T09:26:54;94537.81;;;12.79;nan
23166;BME280;11751;42.700;24.170;2023-02-18T09:29:20;94531.47;;;12.72;nan
23166;BME280;11751;42.700;24.170;2023-02-18T09:31:45;94517.59;;;13.11;nan
23166;BME280;11751;42.700;24.170;2023-02-18T09:34:11;94520.97;;;13.32;nan
23166;BME280;11751;42.700;24.170;2023-02-18T09:36:37;94523.97;;;13.19;nan
23166;BME280;11751;42.700;24.170;2023-02-18T09:39:04;94521.69;;;13.32;nan
23166;BME280;11751;42.700;24.170;2023-02-18T09:41:36;94526.19;;;13.28;nan
23166;BME280;11751;42.700;24.170;2023-02-18T09:44:26;94525.09;;;13.16;nan
23166;BME280;11751;42.700;24.170;2023-02-18T09:49:24;94519.28;;;13.06;nan
23166;BME280;11751;42.700;24.170;2023-02-18T09:51:52;94517.41;;;13.09;nan
23166;BME280;11751;42.700;24.170;2023-02-18T09:54:19;94509.75;;;13.02;nan
23166;BME280;11751;42.700;24.170;2023-02-18T09:56:45;94513.09;;;13.23;nan
23166;BME280;11751;42.700;24.170;2023-02-18T09:59:16;94526.22;;;13.05;nan
23166;BME280;11751;42.700;24.170;2023-02-18T10:01:43;94512.00;;;12.96;nan
23166;BME280;11751;42.700;24.170;2023-02-18T10:04:18;94503.34;;;13.09;nan
23166;BME280;11751;42.700;24.170;2023-02-18T10:06:49;94493.25;;;13.06;nan
23166;BME280;11751;42.700;24.170;2023-02-18T10:11:50;94492.69;;;13.07;nan
23166;BME280;11751;42.700;24.170;2023-02-18T10:14:17;94493.56;;;13.40;nan
23166;BME280;11751;42.700;24.170;2023-02-18T10:16:43;94491.72;;;13.35;nan
23166;BME280;11751;42.700;24.170;2023-02-18T10:19:24;94487.22;;;13.32;nan
23166;BME280;11751;42.700;24.170;2023-02-18T10:21:51;94479.66;;;13.49;nan
23166;BME280;11751;42.700;24.170;2023-02-18T10:24:37;94472.88;;;13.60;nan
23166;BME280;11751;42.700;24.170;2023-02-18T10:27:06;94473.19;;;13.71;nan
23166;BME280;11751;42.700;24.170;2023-02-18T10:29:32;94463.31;;;13.63;nan
23166;BME280;11751;42.700;24.170;2023-02-18T10:32:09;94450.31;;;13.74;nan
23166;BME280;11751;42.700;24.170;2023-02-18T10:34:48;94458.03;;;14.06;nan
23166;BME280;11751;42.700;24.170;2023-02-18T10:37:38;94438.97;;;13.89;nan
23166;BME280;11751;42.700;24.170;2023-02-18T10:50:44;94426.16;;;14.03;nan
23166;BME280;11751;42.700;24.170;2023-02-18T10:53:44;94431.38;;;14.07;nan
23166;BME280;11751;42.700;24.170;2023-02-18T10:59:01;94409.25;;;14.03;nan
23166;BME280;11751;42.700;24.170;2023-02-18T11:01:30;94408.50;;;14.03;nan
23166;BME280;11751;42.700;24.170;2023-02-18T11:04:35;94401.72;;;14.13;nan
23166;BME280;11751;42.700;24.170;2023-02-18T11:07:32;94399.03;;;14.15;nan
23166;BME280;11751;42.700;24.170;2023-02-18T11:10:15;94387.13;;;14.00;nan
23166;BME280;11751;42.700;24.170;2023-02-18T11:12:45;94396.81;;;14.06;nan
23166;BME280;11751;42.700;24.170;2023-02-18T11:15:16;94388.50;;;14.23;nan
23166;BME280;11751;42.700;24.170;2023-02-18T11:17:44;94378.59;;;14.39;nan
23166;BME280;11751;42.700;24.170;2023-02-18T11:20:35;94386.00;;;14.27;nan
23166;BME280;11751;42.700;24.170;2023-02-18T11:23:17;94374.91;;;14.29;nan
23166;BME280;11751;42.700;24.170;2023-02-18T11:26:02;94369.50;;;14.48;nan
23166;BME280;11751;42.700;24.170;2023-02-18T11:28:45;94371.63;;;14.64;nan
23166;BME280;11751;42.700;24.170;2023-02-18T11:31:41;94365.50;;;14.58;nan
23166;BME280;11751;42.700;24.170;2023-02-18T11:34:14;94360.75;;;14.61;nan
23166;BME280;11751;42.700;24.170;2023-02-18T11:36:41;94355.91;;;14.54;nan
23166;BME280;11751;42.700;24.170;2023-02-18T11:39:17;94349.53;;;14.53;nan
23166;BME280;11751;42.700;24.170;2023-02-18T11:41:53;94344.38;;;14.43;nan
23166;BME280;11751;42.700;24.170;2023-02-18T11:44:36;94344.16;;;14.48;nan
23166;BME280;11751;42.700;24.170;2023-02-18T11:49:35;94312.75;;;14.52;nan
23166;BME280;11751;42.700;24.170;2023-02-18T11:54:40;94326.47;;;14.72;nan
23166;BME280;11751;42.700;24.170;2023-02-18T11:57:11;94332.56;;;14.61;nan
23166;BME280;11751;42.700;24.170;2023-02-18T11:59:39;94314.19;;;14.60;nan
23166;BME280;11751;42.700;24.170;2023-02-18T12:02:25;94325.19;;;14.49;nan
23166;BME280;11751;42.700;24.170;2023-02-18T12:07:50;94324.56;;;14.33;nan
23166;BME280;11751;42.700;24.170;2023-02-18T12:10:32;94318.16;;;14.33;nan
23166;BME280;11751;42.700;24.170;2023-02-18T12:13:26;94320.34;;;14.42;nan
23166;BME280;11751;42.700;24.170;2023-02-18T12:24:18;94303.72;;;14.53;nan
23166;BME280;11751;42.700;24.170;2023-02-18T12:46:18;94277.53;;;14.60;nan
23166;BME280;11751;42.700;24.170;2023-02-18T12:57:21;94262.84;;;14.78;nan
23166;BME280;11751;42.700;24.170;2023-02-18T13:02:53;94267.81;;;15.04;nan
23166;BME280;11751;42.700;24.170;2023-02-18T13:05:42;94257.41;;;15.24;nan
23166;BME280;11751;42.700;24.170;2023-02-18T13:11:03;94261.19;;;15.26;nan
23166;BME280;11751;42.700;24.170;2023-02-18T13:13:37;94248.28;;;15.33;nan
23166;BME280;11751;42.700;24.170;2023-02-18T13:16:15;94243.06;;;15.29;nan
23166;BME280;11751;42.700;24.170;2023-02-18T13:18:49;94252.78;;;15.36;nan
23166;BME280;11751;42.700;24.170;2023-02-18T13:21:18;94261.75;;;15.42;nan
23166;BME280;11751;42.700;24.170;2023-02-18T13:24:02;94262.09;;;15.12;nan
23166;BME280;11751;42.700;24.170;2023-02-18T13:26:31;94257.94;;;15.13;nan
23166;BME280;11751;42.700;24.170;2023-02-18T13:37:21;94271.75;;;14.92;nan
23166;BME280;11751;42.700;24.170;2023-02-18T13:39:52;94272.41;;;14.83;nan
23166;BME280;11751;42.700;24.170;2023-02-18T13:42:33;94273.75;;;14.82;nan
23166;BME280;11751;42.700;24.170;2023-02-18T13:47:45;94264.34;;;14.79;nan
23166;BME280;11751;42.700;24.170;2023-02-18T13:52:46;94264.94;;;14.61;nan
23166;BME280;11751;42.700;24.170;2023-02-18T13:55:20;94255.00;;;14.60;nan
23166;BME280;11751;42.700;24.170;2023-02-18T13:57:48;94259.47;;;14.63;nan
23166;BME280;11751;42.700;24.170;2023-02-18T14:00:22;94258.81;;;14.72;nan
23166;BME280;11751;42.700;24.170;2023-02-18T14:02:59;94253.00;;;14.70;nan
23166;BME280;11751;42.700;24.170;2023-02-18T14:05:38;94258.63;;;14.70;nan
23166;BME280;11751;42.700;24.170;2023-02-18T14:08:28;94256.56;;;14.70;nan
23166;BME280;11751;42.700;24.170;2023-02-18T14:14:13;94261.94;;;14.59;nan
23166;BME280;11751;42.700;24.170;2023-02-18T14:19:42;94252.84;;;14.51;nan
23166;BME280;11751;42.700;24.170;2023-02-18T14:22:33;94253.50;;;14.42;nan
23166;BME280;11751;42.700;24.170;2023-02-18T14:27:34;94262.09;;;14.44;nan
23166;BME280;11751;42.700;24.170;2023-02-18T14:30:07;94257.28;;;14.37;nan
23166;BME280;11751;42.700;24.170;2023-02-18T14:32:40;94253.97;;;14.31;nan
23166;BME280;11751;42.700;24.170;2023-02-18T14:35:14;94262.47;;;14.24;nan
23166;BME280;11751;42.700;24.170;2023-02-18T14:50:32;94275.75;;;14.06;nan
23166;BME280;11751;42.700;24.170;2023-02-18T14:53:04;94271.28;;;14.03;nan
23166;BME280;11751;42.700;24.170;2023-02-18T14:55:37;94273.56;;;13.97;nan
23166;BME280;11751;42.700;24.170;2023-02-18T14:58:14;94275.06;;;13.98;nan
23166;BME280;11751;42.700;24.170;2023-02-18T15:00:42;94273.56;;;13.97;nan
23166;BME280;11751;42.700;24.170;2023-02-18T15:03:14;94274.88;;;13.96;nan
23166;BME280;11751;42.700;24.170;2023-02-18T15:05:40;94283.88;;;14.02;nan
23166;BME280;11751;42.700;24.170;2023-02-18T15:08:35;94276.56;;;13.99;nan
23166;BME280;11751;42.700;24.170;2023-02-18T15:11:05;94271.69;;;14.00;nan
23166;BME280;11751;42.700;24.170;2023-02-18T15:13:34;94272.66;;;13.95;nan
23166;BME280;11751;42.700;24.170;2023-02-18T15:16:04;94262.94;;;13.88;nan
23166;BME280;11751;42.700;24.170;2023-02-18T15:18:35;94273.16;;;13.76;nan
23166;BME280;11751;42.700;24.170;2023-02-18T15:21:06;94261.91;;;13.76;nan
23166;BME280;11751;42.700;24.170;2023-02-18T15:23:38;94260.06;;;13.71;nan
23166;BME280;11751;42.700;24.170;2023-02-18T15:26:05;94267.66;;;13.62;nan
23166;BME280;11751;42.700;24.170;2023-02-18T15:28:34;94259.38;;;13.64;nan
23166;BME280;11751;42.700;24.170;2023-02-18T15:31:09;94263.16;;;13.59;nan
23166;BME280;11751;42.700;24.170;2023-02-18T15:33:35;94250.41;;;13.58;nan
23166;BME280;11751;42.700;24.170;2023-02-18T15:36:03;94243.81;;;13.38;nan
23166;BME280;11751;42.700;24.170;2023-02-18T15:38:29;94243.41;;;13.42;nan
23166;BME280;11751;42.700;24.170;2023-02-18T15:40:55;94250.34;;;13.41;nan
23166;BME280;11751;42.700;24.170;2023-02-18T15:43:22;94240.06;;;13.36;nan